< Typhoon 202021 2020 Season
Typhoon 202022 (VAMCO)
General InformationTrack Information on Google MapsDetailed Wind InformationForecast History on Google MapsAccess Analytics MapList of All Images || NewsDisaster Info.WeblogTrackbackTyphoon FrontTwiphoonTyphoon Now!Typhoon ImaginationJMA Disaster Info. XMLResourceGoogle EarthGE AnimationAtom FeedGeoJSON
Detalied Best Track (Time Zone = UTC)
Year Month Day Hour Lat. Long. Pressure (hPa) Wind (kt) Class Image Chart
2020 11 8 12 8.8 133.8 1008 30 2 Image Chart
2020 11 8 15 9.2 133.5 1008 30 2 Image Chart
2020 11 8 18 10.2 132.7 1006 30 2 Image Chart
2020 11 8 21 10.8 131.7 1006 30 2 Image Chart
2020 11 9 00 11.5 131.0 1006 30 2 Image Chart
2020 11 9 03 11.6 130.5 1006 30 2 Image Chart
2020 11 9 06 11.6 130.3 1002 35 3 Image Chart
2020 11 9 09 11.8 130.5 1002 35 3 Image Chart
2020 11 9 12 12.0 130.5 1004 35 3 Image Chart
2020 11 9 15 12.1 130.2 1002 35 3 Image Chart
2020 11 9 18 12.4 130.0 1002 35 3 Image Chart
2020 11 9 21 12.5 129.8 1002 35 3 Image Chart
2020 11 10 00 13.4 128.9 1000 40 3 Image Chart
2020 11 10 03 13.5 128.6 1000 40 3 Image Chart
2020 11 10 06 14.0 128.2 994 45 3 Image Chart
2020 11 10 09 14.3 127.8 994 45 3 Image Chart
2020 11 10 12 14.4 127.1 992 50 4 Image Chart
2020 11 10 15 14.4 126.1 992 50 4 Image Chart
2020 11 10 18 14.4 125.8 990 55 4 Image Chart
2020 11 10 21 14.6 125.1 985 60 4 Image Chart
2020 11 11 00 14.6 124.6 975 65 5 Image Chart
2020 11 11 03 14.6 124.1 970 70 5 Image Chart
2020 11 11 06 14.4 123.5 970 70 5 Image Chart
2020 11 11 09 14.4 123.3 970 70 5 Image Chart
2020 11 11 12 14.7 122.9 970 70 5 Image Chart
2020 11 11 18 15.1 121.3 970 70 5 Image Chart
2020 11 11 21 15.5 120.5 980 60 4 Image Chart
2020 11 12 00 15.2 119.7 985 55 4 Image Chart
2020 11 12 03 15.3 118.9 985 55 4 Image Chart
2020 11 12 06 15.2 118.5 980 60 4 Image Chart
2020 11 12 09 15.2 117.9 980 60 4 Image Chart
2020 11 12 12 15.1 117.4 980 60 4 Image Chart
2020 11 12 15 15.2 116.8 980 60 4 Image Chart
2020 11 12 18 15.1 116.3 980 60 4 Image Chart
2020 11 12 21 15.2 116.0 980 60 4 Image Chart
2020 11 13 00 15.3 115.9 980 60 4 Image Chart
2020 11 13 03 15.5 115.2 980 60 4 Image Chart
2020 11 13 06 15.4 114.4 980 60 4 Image Chart
2020 11 13 09 15.5 114.0 975 65 5 Image Chart
2020 11 13 12 15.5 113.4 965 75 5 Image Chart
2020 11 13 15 15.6 112.9 965 75 5 Image Chart
2020 11 13 18 15.6 112.4 955 80 5 Image Chart
2020 11 13 21 15.7 111.9 950 85 5 Image Chart
2020 11 14 00 15.7 111.4 950 85 5 Image Chart
2020 11 14 03 15.8 110.8 950 85 5 Image Chart
2020 11 14 06 15.9 110.3 955 85 5 Image Chart
2020 11 14 09 16.1 109.9 955 85 5 Image Chart
2020 11 14 12 16.4 109.4 955 85 5 Image Chart
2020 11 14 15 16.5 108.9 960 80 5 Image Chart
2020 11 14 18 16.6 108.7 960 80 5 Image Chart
2020 11 14 21 16.9 108.3 975 70 5 Image Chart
2020 11 15 00 17.2 108.0 980 65 5 Image Chart
2020 11 15 03 17.3 107.3 990 60 4 Image Chart
2020 11 15 06 17.9 106.6 996 50 4 Image Chart
2020 11 15 09 18.0 106.2 1002 40 3 Image Chart
2020 11 15 12 18.1 106.1 1006 35 3 Image Chart
2020 11 15 15 18.0 105.0 1012 0 2 Image Chart
Japan Meteorological Agency Best Track Data | Correction Date : 2020-11-15
< Typhoon 202021 2020 Season

Help